createdAt,value
2023-01-09T00:00:52.524Z,80.68
2023-01-09T00:11:00.297Z,80.44
2023-01-09T00:21:04.851Z,81.85
2023-01-09T00:31:08.649Z,81.37
2023-01-09T00:41:15.945Z,80.07
2023-01-09T00:51:20.412Z,80.88
2023-01-09T01:01:22.826Z,82.75
2023-01-09T01:11:25.161Z,82.49
2023-01-09T01:21:27.669Z,81.65
2023-01-09T01:31:29.848Z,81.46
2023-01-09T01:41:32.118Z,81.49
2023-01-09T01:51:39.098Z,80.98
2023-01-09T02:01:44.447Z,81.46
2023-01-09T02:11:48.880Z,80.78
2023-01-09T02:22:36.018Z,80.69
2023-01-09T02:32:43.818Z,81.00
2023-01-09T02:42:48.458Z,81.56
2023-01-09T02:52:59.402Z,81.18
2023-01-09T03:03:10.206Z,82.52
2023-01-09T03:13:18.473Z,83.04
2023-01-09T03:23:20.727Z,81.70
2023-01-09T03:33:22.960Z,82.41
2023-01-09T03:43:25.139Z,82.26
2023-01-09T03:53:28.640Z,82.10
2023-01-09T04:03:30.983Z,82.73
2023-01-09T04:13:33.346Z,82.33
2023-01-09T04:23:35.534Z,82.12
2023-01-09T04:33:37.759Z,81.76
2023-01-09T04:43:42.319Z,81.50
2023-01-09T04:53:44.523Z,81.49
2023-01-09T05:03:46.790Z,81.16
2023-01-09T05:13:48.953Z,74.63
2023-01-09T05:23:51.207Z,74.00
2023-01-09T05:33:53.763Z,68.52
2023-01-09T05:43:55.966Z,65.73
2023-01-09T05:53:59.184Z,66.94
2023-01-09T06:04:01.438Z,69.44
2023-01-09T06:14:03.675Z,71.79
2023-01-09T06:24:06.422Z,71.21
2023-01-09T06:34:09.072Z,70.99
2023-01-09T06:44:11.416Z,70.87
2023-01-09T06:54:13.685Z,71.08
2023-01-09T07:04:17.614Z,71.48
2023-01-09T07:14:20.117Z,71.79
2023-01-09T07:24:22.333Z,71.91
2023-01-09T07:34:24.546Z,71.16
2023-01-09T07:44:27.144Z,71.34
2023-01-09T07:54:29.410Z,72.28
2023-01-09T08:04:31.838Z,71.50
2023-01-09T08:14:34.297Z,71.84
2023-01-09T08:24:36.861Z,70.92
2023-01-09T08:34:39.099Z,69.76
2023-01-09T08:45:00.029Z,69.97
2023-01-09T08:55:02.241Z,70.28
2023-01-09T09:05:04.772Z,68.20
2023-01-09T09:15:13.636Z,69.12
2023-01-09T09:25:17.071Z,69.40
2023-01-09T09:35:23.797Z,68.91
2023-01-09T09:45:59.535Z,66.41
2023-01-09T09:56:02.826Z,66.50
2023-01-09T10:06:10.941Z,66.61
2023-01-09T10:16:35.534Z,65.04
2023-01-09T10:26:46.265Z,64.58
2023-01-09T10:37:00.194Z,64.08
2023-01-09T10:47:09.022Z,62.79
2023-01-09T10:57:16.388Z,62.63
2023-01-09T11:07:20.910Z,63.67
2023-01-09T11:17:27.174Z,64.88
2023-01-09T11:27:29.523Z,64.98
2023-01-09T11:37:32.796Z,64.32
2023-01-09T11:47:41.011Z,65.43
2023-01-09T11:57:43.292Z,65.25
2023-01-09T12:07:57.791Z,66.59
2023-01-09T12:18:11.655Z,67.45
2023-01-09T12:28:13.808Z,66.61
2023-01-09T12:38:37.282Z,66.55
2023-01-09T12:49:09.341Z,67.35
2023-01-09T12:59:33.228Z,67.73
2023-01-09T13:09:53.478Z,66.56
2023-01-09T13:19:55.857Z,67.61
2023-01-09T13:30:09.000Z,69.14
2023-01-09T13:40:20.064Z,70.05
2023-01-09T13:50:26.573Z,70.43
2023-01-09T14:00:28.803Z,69.82
2023-01-09T14:10:39.777Z,69.22
2023-01-09T14:20:45.993Z,68.70
2023-01-09T14:30:54.447Z,69.38
2023-01-09T14:41:17.015Z,69.43
2023-01-09T14:51:22.268Z,68.64
2023-01-09T15:01:27.490Z,67.67
2023-01-09T15:11:31.331Z,68.11
2023-01-09T15:21:33.678Z,68.80
2023-01-09T15:31:39.133Z,69.50
2023-01-09T15:42:00.102Z,70.45
2023-01-09T15:52:03.182Z,71.27
2023-01-09T16:02:31.139Z,71.27
2023-01-09T16:12:33.553Z,71.48
2023-01-09T16:22:37.021Z,71.40
2023-01-09T16:32:51.554Z,71.48
2023-01-09T16:43:01.557Z,72.00
2023-01-09T16:53:14.590Z,71.93
2023-01-09T17:03:17.775Z,73.17
2023-01-09T17:13:20.497Z,74.14
2023-01-09T17:23:25.931Z,74.27
2023-01-09T17:33:28.457Z,75.42
2023-01-09T17:43:32.237Z,74.39
2023-01-09T17:53:34.449Z,75.27
2023-01-09T18:03:36.696Z,74.72
2023-01-09T18:13:38.940Z,75.16
2023-01-09T18:23:41.234Z,75.59
2023-01-09T18:33:46.880Z,75.51
2023-01-09T18:43:54.044Z,75.72
2023-01-09T18:53:57.321Z,76.12
2023-01-09T19:04:00.123Z,77.03
2023-01-09T19:14:02.642Z,76.63
2023-01-09T19:24:05.295Z,77.49
2023-01-09T19:34:08.044Z,77.02
2023-01-09T19:44:11.000Z,77.70
2023-01-09T19:54:13.250Z,76.95
2023-01-09T20:04:17.475Z,75.34
2023-01-09T20:14:20.973Z,74.86
2023-01-09T20:24:23.271Z,74.04
2023-01-09T20:34:25.485Z,73.14
2023-01-09T20:44:27.692Z,72.04
2023-01-09T20:54:29.944Z,72.21
2023-01-09T21:04:32.313Z,71.76
2023-01-09T21:14:36.010Z,72.20
2023-01-09T21:24:38.368Z,72.72
2023-01-09T21:40:13.905Z,71.57
2023-01-09T21:50:17.462Z,71.62
2023-01-09T22:00:20.152Z,72.19
2023-01-09T22:10:22.580Z,71.66
2023-01-09T22:20:24.866Z,71.16
2023-01-09T22:30:27.172Z,70.75
2023-01-09T22:40:29.417Z,72.60
2023-01-09T22:50:31.628Z,72.10
2023-01-09T23:00:33.911Z,73.64
2023-01-09T23:10:36.216Z,73.03
2023-01-09T23:20:38.516Z,73.00
2023-01-09T23:30:40.765Z,74.08
2023-01-09T23:40:43.183Z,74.06
2023-01-09T23:50:53.297Z,73.23
